createdAt,value
2018-04-11T00:02:16.955Z,52.60
2018-04-11T00:04:48.436Z,52.60
2018-04-11T00:07:19.353Z,52.60
2018-04-11T00:09:51.103Z,52.50
2018-04-11T00:12:23.579Z,52.50
2018-04-11T00:14:55.861Z,52.50
2018-04-11T00:17:27.829Z,52.40
2018-04-11T00:19:58.965Z,52.50
2018-04-11T00:22:32.876Z,52.40
2018-04-11T00:25:05.854Z,52.50
2018-04-11T00:27:37.527Z,52.40
2018-04-11T00:30:08.690Z,52.40
2018-04-11T00:32:40.934Z,52.40
2018-04-11T00:35:13.809Z,52.40
2018-04-11T00:37:45.256Z,52.40
2018-04-11T00:40:16.820Z,52.40
2018-04-11T00:42:48.268Z,52.40
2018-04-11T00:45:20.062Z,52.40
2018-04-11T00:47:52.997Z,52.40
2018-04-11T00:50:24.659Z,52.30
2018-04-11T00:53:08.170Z,52.30
2018-04-11T00:55:40.169Z,52.30
2018-04-11T00:58:12.203Z,52.30
2018-04-11T01:00:44.295Z,52.30
2018-04-11T01:03:16.308Z,52.30
2018-04-11T01:05:48.189Z,52.30
2018-04-11T01:08:22.398Z,52.30
2018-04-11T01:10:55.331Z,52.30
2018-04-11T01:13:29.043Z,52.20
2018-04-11T01:16:02.143Z,52.30
2018-04-11T01:18:33.575Z,52.30
2018-04-11T01:21:05.921Z,52.40
2018-04-11T01:23:37.615Z,52.30
2018-04-11T01:26:10.146Z,52.30
2018-04-11T01:28:43.426Z,52.30
2018-04-11T01:31:15.279Z,52.30
2018-04-11T01:33:48.694Z,52.30
2018-04-11T01:36:20.348Z,52.30
2018-04-11T01:38:53.004Z,52.30
2018-04-11T01:41:26.023Z,52.30
2018-04-11T01:43:58.592Z,52.30
2018-04-11T01:46:31.275Z,52.30
2018-04-11T01:49:02.542Z,52.30
2018-04-11T01:51:33.470Z,52.30
2018-04-11T01:54:07.239Z,52.20
2018-04-11T01:56:38.833Z,52.20
2018-04-11T01:59:10.056Z,52.30
2018-04-11T02:01:42.923Z,52.30
2018-04-11T02:04:14.611Z,52.30
2018-04-11T02:06:46.299Z,52.30
2018-04-11T02:09:18.912Z,52.20
2018-04-11T02:11:51.046Z,52.30
2018-04-11T02:14:22.503Z,52.30
2018-04-11T02:16:54.546Z,52.30
2018-04-11T02:19:26.138Z,52.30
2018-04-11T02:21:58.646Z,52.90
2018-04-11T02:24:31.066Z,52.30
2018-04-11T02:27:02.163Z,52.20
2018-04-11T02:29:33.645Z,52.30
2018-04-11T02:32:05.899Z,52.20
2018-04-11T02:34:38.501Z,52.30
2018-04-11T02:37:10.324Z,52.30
2018-04-11T02:39:42.248Z,52.20
2018-04-11T02:42:15.451Z,52.20
2018-04-11T02:44:47.504Z,52.20
2018-04-11T02:47:19.292Z,52.20
2018-04-11T02:49:51.431Z,52.20
2018-04-11T02:52:23.943Z,52.20
2018-04-11T02:54:56.582Z,52.20
2018-04-11T02:57:28.462Z,52.20
2018-04-11T03:00:00.812Z,52.20
2018-04-11T03:02:32.612Z,52.20
2018-04-11T03:05:04.328Z,52.20
2018-04-11T03:07:35.804Z,52.20
2018-04-11T03:10:07.211Z,52.20
2018-04-11T03:12:38.447Z,52.20
2018-04-11T03:15:10.731Z,52.20
2018-04-11T03:17:42.504Z,52.20
2018-04-11T03:20:15.102Z,52.30
2018-04-11T03:22:46.870Z,52.20
2018-04-11T03:25:19.298Z,52.20
2018-04-11T03:27:51.071Z,52.30
2018-04-11T03:30:23.371Z,52.20
2018-04-11T03:32:56.075Z,52.20
2018-04-11T03:35:27.547Z,52.30
2018-04-11T03:37:59.027Z,52.20
2018-04-11T03:40:31.509Z,52.20
2018-04-11T03:43:03.478Z,52.20
2018-04-11T03:45:36.396Z,52.20
2018-04-11T03:48:07.203Z,52.30
2018-04-11T03:50:38.413Z,52.20
2018-04-11T03:53:11.759Z,52.20
2018-04-11T03:55:43.135Z,52.20
2018-04-11T03:58:14.606Z,52.20
2018-04-11T04:00:46.868Z,52.20
2018-04-11T04:03:18.749Z,52.20
2018-04-11T04:05:49.592Z,52.20
2018-04-11T04:08:20.732Z,52.20
2018-04-11T04:10:52.674Z,52.20
2018-04-11T04:13:35.551Z,52.80
2018-04-11T04:16:18.574Z,52.20
2018-04-11T04:19:02.243Z,52.20
2018-04-11T04:21:33.900Z,52.10
2018-04-11T04:24:08.107Z,52.20
2018-04-11T04:26:39.881Z,52.20
2018-04-11T04:29:11.655Z,52.20
2018-04-11T04:31:42.973Z,52.20
2018-04-11T04:34:14.248Z,52.20
2018-04-11T04:36:45.702Z,52.20
2018-04-11T04:39:19.926Z,52.10
2018-04-11T04:41:51.071Z,52.10
2018-04-11T04:44:22.486Z,52.10
2018-04-11T04:46:54.839Z,52.10
2018-04-11T04:49:26.066Z,52.10
2018-04-11T04:51:57.518Z,52.10
2018-04-11T04:54:29.325Z,52.10
2018-04-11T04:57:01.073Z,52.10
2018-04-11T04:59:33.038Z,52.00
2018-04-11T05:02:05.643Z,52.10
2018-04-11T05:04:37.382Z,52.00
2018-04-11T05:07:08.907Z,52.00
2018-04-11T05:09:40.358Z,52.00
2018-04-11T05:12:12.862Z,52.00
2018-04-11T05:14:44.308Z,52.00
2018-04-11T05:17:16.011Z,52.00
2018-04-11T05:19:47.380Z,52.00
2018-04-11T05:22:18.602Z,52.00
2018-04-11T05:24:49.736Z,52.60
2018-04-11T05:27:21.499Z,52.00
2018-04-11T05:29:53.869Z,52.00
2018-04-11T05:32:25.459Z,52.00
2018-04-11T05:34:57.935Z,52.00
2018-04-11T05:37:30.559Z,52.00
2018-04-11T05:40:01.755Z,52.10
2018-04-11T05:42:33.501Z,51.90
2018-04-11T05:45:06.232Z,51.90
2018-04-11T05:47:37.292Z,51.90
2018-04-11T05:50:09.426Z,51.90
2018-04-11T05:52:41.718Z,51.80
2018-04-11T05:55:14.083Z,51.90
2018-04-11T05:57:48.060Z,51.90
2018-04-11T06:00:19.959Z,51.80
2018-04-11T06:02:53.166Z,51.70
2018-04-11T06:05:24.789Z,51.70
2018-04-11T06:07:56.125Z,51.70
2018-04-11T06:10:28.086Z,51.70
2018-04-11T06:12:59.822Z,51.70
2018-04-11T06:15:31.582Z,51.70
2018-04-11T06:18:03.957Z,51.70
2018-04-11T06:20:35.463Z,51.70
2018-04-11T06:23:08.751Z,51.70
2018-04-11T06:25:40.335Z,51.60
2018-04-11T06:28:12.696Z,51.70
2018-04-11T06:30:45.060Z,51.60
2018-04-11T06:33:16.778Z,52.30
2018-04-11T06:35:48.542Z,51.70
2018-04-11T06:38:20.601Z,51.70
2018-04-11T06:40:52.255Z,51.70
2018-04-11T06:43:23.659Z,51.70
2018-04-11T06:45:54.826Z,51.60
2018-04-11T06:48:27.234Z,51.60
2018-04-11T06:50:58.634Z,51.70
2018-04-11T06:53:31.414Z,51.50
2018-04-11T06:56:03.750Z,51.60
2018-04-11T06:58:36.379Z,51.70
2018-04-11T07:01:08.158Z,51.60
2018-04-11T07:03:40.758Z,51.60
2018-04-11T07:06:15.358Z,51.70
2018-04-11T07:08:46.527Z,51.60
2018-04-11T07:11:18.557Z,51.60
2018-04-11T07:13:52.121Z,51.70
2018-04-11T07:16:23.507Z,51.60
2018-04-11T07:18:56.266Z,51.60
2018-04-11T07:21:28.061Z,51.50
2018-04-11T07:24:00.362Z,51.50
2018-04-11T07:26:32.159Z,51.60
2018-04-11T07:29:03.917Z,51.40
2018-04-11T07:31:35.295Z,51.40
2018-04-11T07:34:06.600Z,51.50
2018-04-11T07:36:39.281Z,51.40
2018-04-11T07:39:12.197Z,51.40
2018-04-11T07:41:44.691Z,51.40
2018-04-11T07:44:21.520Z,51.40
2018-04-11T07:46:53.010Z,51.60
2018-04-11T07:49:24.593Z,51.90
2018-04-11T07:51:57.734Z,51.90
2018-04-11T07:54:29.713Z,51.80
2018-04-11T07:57:02.858Z,51.80
2018-04-11T07:59:34.674Z,51.90
2018-04-11T08:02:06.843Z,51.90
2018-04-11T08:04:39.978Z,52.00
2018-04-11T08:07:11.349Z,51.80
2018-04-11T08:09:42.248Z,52.00
2018-04-11T08:12:16.078Z,52.00
2018-04-11T08:14:47.587Z,52.00
2018-04-11T08:17:18.993Z,52.00
2018-04-11T08:19:52.392Z,52.10
2018-04-11T08:22:25.731Z,52.20
2018-04-11T08:24:58.703Z,52.20
2018-04-11T08:27:31.494Z,52.20
2018-04-11T08:30:02.668Z,52.10
2018-04-11T08:32:33.983Z,52.20
2018-04-11T08:35:05.546Z,52.30
2018-04-11T08:37:37.771Z,52.30
2018-04-11T08:40:09.372Z,52.40
2018-04-11T08:42:42.349Z,52.50
2018-04-11T08:45:13.527Z,52.50
2018-04-11T08:47:45.899Z,53.10
2018-04-11T08:50:17.679Z,54.50
2018-04-11T08:52:49.683Z,53.80
2018-04-11T08:55:21.169Z,53.70
2018-04-11T08:57:53.726Z,53.60
2018-04-11T09:00:25.414Z,53.50
2018-04-11T09:02:57.078Z,53.40
2018-04-11T09:05:28.625Z,53.40
2018-04-11T09:08:00.086Z,53.30
2018-04-11T09:10:33.124Z,53.20
2018-04-11T09:13:05.724Z,53.20
2018-04-11T09:15:36.791Z,53.10
2018-04-11T09:18:09.186Z,53.10
2018-04-11T09:20:40.958Z,53.00
2018-04-11T09:23:14.150Z,53.00
2018-04-11T09:25:46.723Z,53.00
2018-04-11T09:28:18.115Z,53.00
2018-04-11T09:30:50.662Z,53.00
2018-04-11T09:33:22.202Z,52.80
2018-04-11T09:35:55.036Z,52.80
2018-04-11T09:38:26.242Z,52.80
2018-04-11T09:40:57.695Z,52.90
2018-04-11T09:43:29.203Z,52.90
2018-04-11T09:46:01.529Z,52.80
2018-04-11T09:48:33.005Z,52.80
2018-04-11T09:51:04.411Z,52.80
2018-04-11T09:53:36.098Z,52.80
2018-04-11T09:56:07.927Z,52.70
2018-04-11T09:58:39.459Z,52.70
2018-04-11T10:01:10.898Z,52.70
2018-04-11T10:03:45.664Z,52.70
2018-04-11T10:06:16.808Z,52.80
2018-04-11T10:08:48.447Z,52.90
2018-04-11T10:11:19.775Z,52.80
2018-04-11T10:13:52.955Z,52.70
2018-04-11T10:16:26.611Z,52.80
2018-04-11T10:18:58.866Z,52.90
2018-04-11T10:21:29.957Z,52.80
2018-04-11T10:24:01.971Z,52.80
2018-04-11T10:26:33.258Z,52.80
2018-04-11T10:29:05.544Z,52.80
2018-04-11T10:31:38.666Z,52.80
2018-04-11T10:34:10.158Z,52.90
2018-04-11T10:36:41.409Z,52.90
2018-04-11T10:39:14.789Z,52.80
2018-04-11T10:41:45.814Z,56.70
2018-04-11T10:44:20.276Z,52.90
2018-04-11T10:46:51.710Z,53.10
2018-04-11T10:49:24.434Z,53.30
2018-04-11T10:51:56.010Z,53.50
2018-04-11T10:54:27.578Z,53.80
2018-04-11T11:04:17.351Z,49.00
2018-04-11T11:20:09.730Z,47.80
2018-04-11T11:27:15.063Z,37.10
2018-04-11T11:29:47.623Z,34.30
2018-04-11T11:32:21.191Z,32.60
2018-04-11T11:34:52.643Z,32.50
2018-04-11T11:37:25.255Z,31.10
2018-04-11T11:39:58.101Z,30.10
2018-04-11T11:42:29.934Z,30.40
2018-04-11T11:45:03.475Z,29.80
2018-04-11T11:47:35.323Z,30.60
2018-04-11T11:50:06.623Z,29.80
2018-04-11T11:52:38.323Z,30.70
2018-04-11T11:55:12.421Z,31.80
2018-04-11T11:57:43.949Z,31.70
2018-04-11T12:00:15.618Z,31.10
2018-04-11T12:02:48.167Z,28.10
2018-04-11T12:05:20.073Z,26.70
2018-04-11T12:07:52.848Z,26.60
2018-04-11T12:10:24.911Z,26.60
2018-04-11T12:12:56.061Z,25.40
2018-04-11T12:15:27.822Z,24.50
2018-04-11T12:18:01.486Z,24.30
2018-04-11T12:20:34.510Z,25.00
2018-04-11T12:23:08.099Z,26.10
2018-04-11T12:25:40.918Z,27.20
2018-04-11T12:28:15.467Z,27.30
2018-04-11T12:30:47.266Z,29.60
2018-04-11T12:33:19.700Z,29.50
2018-04-11T12:35:52.214Z,31.30
2018-04-11T12:38:24.792Z,27.70
2018-04-11T12:40:56.838Z,27.60
2018-04-11T12:43:30.808Z,30.70
2018-04-11T12:46:03.388Z,30.60
2018-04-11T12:48:36.676Z,29.40
2018-04-11T12:51:08.809Z,30.10
2018-04-11T12:53:41.904Z,31.20
2018-04-11T12:56:14.172Z,31.40
2018-04-11T12:58:46.304Z,30.80
2018-04-11T13:01:18.815Z,28.60
2018-04-11T13:03:53.140Z,27.00
2018-04-11T13:06:25.078Z,27.60
2018-04-11T13:08:57.750Z,28.50
2018-04-11T13:11:29.488Z,30.00
2018-04-11T13:14:01.176Z,28.30
2018-04-11T13:16:34.115Z,27.20
2018-04-11T13:19:06.079Z,27.30
2018-04-11T13:21:39.600Z,28.40
2018-04-11T13:24:12.751Z,30.00
2018-04-11T13:26:45.079Z,29.90
2018-04-11T13:29:16.985Z,31.20
2018-04-11T13:31:48.392Z,32.40
2018-04-11T13:34:20.286Z,33.00
2018-04-11T13:36:53.859Z,32.60
2018-04-11T13:39:26.236Z,33.90
2018-04-11T13:41:58.571Z,35.10
2018-04-11T13:44:31.060Z,35.10
2018-04-11T13:47:04.427Z,35.30
2018-04-11T13:49:38.595Z,36.20
2018-04-11T13:52:12.184Z,36.20
2018-04-11T13:54:45.789Z,34.20
2018-04-11T13:57:17.454Z,34.10
2018-04-11T13:59:49.836Z,33.10
2018-04-11T14:02:23.708Z,35.10
2018-04-11T14:04:55.387Z,35.70
2018-04-11T14:07:26.923Z,36.10
2018-04-11T14:09:57.538Z,33.30
2018-04-11T14:12:29.207Z,32.70
2018-04-11T14:15:01.045Z,33.00
2018-04-11T14:17:33.072Z,31.00
2018-04-11T14:20:06.185Z,30.00
2018-04-11T14:22:38.769Z,29.80
2018-04-11T14:25:12.731Z,29.80
2018-04-11T14:27:44.633Z,29.40
2018-04-11T14:30:17.170Z,29.20
2018-04-11T14:32:48.495Z,31.30
2018-04-11T14:35:21.761Z,32.10
2018-04-11T14:37:52.902Z,32.80
2018-04-11T14:40:25.486Z,33.80
2018-04-11T14:42:58.863Z,33.70
2018-04-11T14:45:31.936Z,35.60
2018-04-11T14:48:05.227Z,36.00
2018-04-11T14:50:45.686Z,36.50
2018-04-11T14:53:18.578Z,36.90
2018-04-11T14:55:51.728Z,37.00
2018-04-11T14:58:23.888Z,37.50
2018-04-11T15:00:56.995Z,37.50
2018-04-11T15:03:29.980Z,38.30
2018-04-11T15:06:02.418Z,37.80
2018-04-11T15:08:34.767Z,38.20
2018-04-11T15:11:06.351Z,37.60
2018-04-11T15:13:38.180Z,37.50
2018-04-11T15:16:10.760Z,37.70
2018-04-11T15:18:41.906Z,38.10
2018-04-11T15:21:14.026Z,37.60
2018-04-11T15:23:45.437Z,37.40
2018-04-11T15:26:17.522Z,38.60
2018-04-11T15:28:50.184Z,38.40
2018-04-11T15:31:22.879Z,39.10
2018-04-11T15:33:55.823Z,38.20
2018-04-11T15:36:29.762Z,38.20
2018-04-11T15:39:01.797Z,37.90
2018-04-11T15:41:34.167Z,38.40
2018-04-11T15:44:06.659Z,38.70
2018-04-11T15:46:38.577Z,39.10
2018-04-11T15:49:11.273Z,39.90
2018-04-11T15:51:42.796Z,40.30
2018-04-11T15:54:14.332Z,39.60
2018-04-11T15:56:47.366Z,39.00
2018-04-11T15:59:19.190Z,39.30
2018-04-11T16:01:50.154Z,39.40
2018-04-11T16:04:22.130Z,39.30
2018-04-11T16:06:54.583Z,39.80
2018-04-11T16:09:27.059Z,40.00
2018-04-11T16:11:59.354Z,40.40
2018-04-11T16:14:32.542Z,41.10
2018-04-11T16:17:05.221Z,41.10
2018-04-11T16:19:36.403Z,41.10
2018-04-11T16:22:09.140Z,41.50
2018-04-11T16:24:49.300Z,42.20
2018-04-11T16:27:23.564Z,42.30
2018-04-11T16:29:54.967Z,42.80
2018-04-11T16:32:26.960Z,43.00
2018-04-11T16:34:59.551Z,42.60
2018-04-11T16:37:32.273Z,42.60
2018-04-11T16:40:03.878Z,42.70
2018-04-11T16:42:37.035Z,42.70
2018-04-11T16:45:08.539Z,42.80
2018-04-11T16:47:40.808Z,42.80
2018-04-11T16:50:13.892Z,43.20
2018-04-11T16:52:46.505Z,43.40
2018-04-11T16:55:20.673Z,43.90
2018-04-11T16:57:52.547Z,44.50
2018-04-11T17:00:26.017Z,44.50
2018-04-11T17:02:57.180Z,44.60
2018-04-11T17:05:30.740Z,44.70
2018-04-11T17:08:02.583Z,44.90
2018-04-11T17:10:35.939Z,45.10
2018-04-11T17:13:08.783Z,44.70
2018-04-11T17:15:40.609Z,45.30
2018-04-11T17:18:13.586Z,45.80
2018-04-11T17:20:58.635Z,46.20
2018-04-11T17:23:41.454Z,46.20
2018-04-11T17:26:23.785Z,46.60
2018-04-11T17:29:07.735Z,46.60
2018-04-11T17:31:40.676Z,46.60
2018-04-11T17:34:12.632Z,46.80
2018-04-11T17:36:43.908Z,46.90
2018-04-11T17:39:16.517Z,47.40
2018-04-11T17:41:49.723Z,47.60
2018-04-11T17:44:21.856Z,47.50
2018-04-11T17:46:53.224Z,47.80
2018-04-11T17:49:24.471Z,48.00
2018-04-11T17:51:57.743Z,47.90
2018-04-11T17:54:29.355Z,48.20
2018-04-11T17:57:01.984Z,48.80
2018-04-11T17:59:35.323Z,48.80
2018-04-11T18:02:08.352Z,49.10
2018-04-11T18:04:41.157Z,49.50
2018-04-11T18:07:13.266Z,50.00
2018-04-11T18:09:45.757Z,49.40
2018-04-11T18:12:18.714Z,49.00
2018-04-11T18:14:51.828Z,49.30
2018-04-11T18:17:23.550Z,49.20
2018-04-11T18:19:55.739Z,49.10
2018-04-11T18:22:27.735Z,49.30
2018-04-11T18:25:00.776Z,49.70
2018-04-11T18:27:33.694Z,50.10
2018-04-11T18:30:06.527Z,50.00
2018-04-11T18:32:39.089Z,49.90
2018-04-11T18:35:13.861Z,50.10
2018-04-11T18:37:47.117Z,50.10
2018-04-11T18:40:20.095Z,49.90
2018-04-11T18:42:53.174Z,49.70
2018-04-11T18:45:25.203Z,49.60
2018-04-11T18:47:56.908Z,49.60
2018-04-11T18:50:29.360Z,49.70
2018-04-11T18:53:01.556Z,50.00
2018-04-11T18:55:35.083Z,50.20
2018-04-11T18:58:07.359Z,50.50
2018-04-11T19:00:40.792Z,50.40
2018-04-11T19:03:12.797Z,50.40
2018-04-11T19:05:45.431Z,51.40
2018-04-11T19:08:17.648Z,51.50
2018-04-11T19:10:52.247Z,52.30
2018-04-11T19:13:24.837Z,52.80
2018-04-11T19:15:58.823Z,52.60
2018-04-11T19:18:32.411Z,53.30
2018-04-11T19:21:05.311Z,53.60
2018-04-11T19:23:37.612Z,53.50
2018-04-11T19:26:12.562Z,53.20
2018-04-11T19:28:46.630Z,53.30
2018-04-11T19:31:17.853Z,52.60
2018-04-11T19:33:52.047Z,51.80
2018-04-11T19:36:25.208Z,51.40
2018-04-11T19:38:58.495Z,51.20
2018-04-11T19:41:31.455Z,51.80
2018-04-11T19:44:03.903Z,51.50
2018-04-11T19:46:36.019Z,51.40
2018-04-11T19:49:08.512Z,52.10
2018-04-11T19:51:40.336Z,51.90
2018-04-11T19:54:12.752Z,52.20
2018-04-11T19:56:45.352Z,52.30
2018-04-11T19:59:17.814Z,52.60
2018-04-11T20:01:51.954Z,52.60
2018-04-11T20:04:25.853Z,53.00
2018-04-11T20:06:58.600Z,53.50
2018-04-11T20:09:34.474Z,53.80
2018-04-11T20:12:08.415Z,54.50
2018-04-11T20:14:43.143Z,55.20
2018-04-11T20:17:16.958Z,55.50
2018-04-11T20:19:50.732Z,56.10
2018-04-11T20:22:23.976Z,56.40
2018-04-11T20:24:56.133Z,56.50
2018-04-11T20:27:28.299Z,56.60
2018-04-11T20:29:59.940Z,57.40
2018-04-11T20:32:33.782Z,57.80
2018-04-11T20:35:06.326Z,57.90
2018-04-11T20:37:38.862Z,58.20
2018-04-11T20:40:11.460Z,58.50
2018-04-11T20:42:44.400Z,58.80
2018-04-11T20:45:16.570Z,58.90
2018-04-11T20:47:50.346Z,59.20
2018-04-11T20:50:22.227Z,59.30
2018-04-11T20:52:54.308Z,59.70
2018-04-11T20:55:26.311Z,59.80
2018-04-11T20:58:00.138Z,60.30
2018-04-11T21:00:32.125Z,60.30
2018-04-11T21:03:03.788Z,60.70
2018-04-11T21:05:36.693Z,60.80
2018-04-11T21:08:09.675Z,61.20
2018-04-11T21:10:42.278Z,61.20
2018-04-11T21:13:14.194Z,61.40
2018-04-11T21:15:48.215Z,61.40
2018-04-11T21:18:20.031Z,61.60
2018-04-11T21:20:53.031Z,61.70
2018-04-11T21:23:26.300Z,62.00
2018-04-11T21:25:59.268Z,61.90
2018-04-11T21:28:32.881Z,62.30
2018-04-11T21:31:06.007Z,62.70
2018-04-11T21:33:39.269Z,62.70
2018-04-11T21:36:12.380Z,62.40
2018-04-11T21:38:44.496Z,62.70
2018-04-11T21:41:18.137Z,62.80
2018-04-11T21:43:51.415Z,63.00
2018-04-11T21:46:23.599Z,63.00
2018-04-11T21:48:56.213Z,63.20
2018-04-11T21:51:29.823Z,63.30
2018-04-11T21:54:01.417Z,63.40
2018-04-11T21:56:34.595Z,63.50
2018-04-11T21:59:07.483Z,62.50
2018-04-11T22:01:40.107Z,61.80
2018-04-11T22:04:13.584Z,62.00
2018-04-11T22:06:46.447Z,62.40
2018-04-11T22:09:18.832Z,62.60
2018-04-11T22:11:51.500Z,62.80
2018-04-11T22:14:23.788Z,62.80
2018-04-11T22:16:56.500Z,62.80
2018-04-11T22:19:28.740Z,62.10
2018-04-11T22:22:02.059Z,62.00
2018-04-11T22:24:34.074Z,61.80
2018-04-11T22:27:07.664Z,61.80
2018-04-11T22:29:40.160Z,62.10
2018-04-11T22:32:12.899Z,62.70
2018-04-11T22:34:44.987Z,62.50
2018-04-11T22:37:16.844Z,62.70
2018-04-11T22:39:50.490Z,62.60
2018-04-11T22:42:22.840Z,62.70
2018-04-11T22:44:56.752Z,63.10
2018-04-11T22:47:29.627Z,63.40
2018-04-11T22:50:01.826Z,63.70
2018-04-11T22:52:31.230Z,63.90
2018-04-11T22:55:00.998Z,64.20
2018-04-11T22:57:32.310Z,64.40
2018-04-11T23:00:01.776Z,64.60
2018-04-11T23:02:32.269Z,64.30
2018-04-11T23:05:05.895Z,64.40
2018-04-11T23:07:35.663Z,64.70
2018-04-11T23:10:05.000Z,64.70
2018-04-11T23:12:35.874Z,65.00
2018-04-11T23:15:06.010Z,65.30
2018-04-11T23:17:37.102Z,65.20
2018-04-11T23:20:07.724Z,65.20
2018-04-11T23:22:36.098Z,65.30
2018-04-11T23:25:04.847Z,65.70
2018-04-11T23:27:34.959Z,65.90
2018-04-11T23:30:05.181Z,65.80
2018-04-11T23:32:35.402Z,66.00
2018-04-11T23:35:12.834Z,66.30
2018-04-11T23:37:42.746Z,66.60
2018-04-11T23:40:14.474Z,66.60
2018-04-11T23:42:43.155Z,66.70
2018-04-11T23:45:13.145Z,66.60
2018-04-11T23:47:42.955Z,66.90
2018-04-11T23:50:12.428Z,67.10
2018-04-11T23:52:44.558Z,67.10
2018-04-11T23:55:13.044Z,67.20
2018-04-11T23:57:42.514Z,67.50
